sensor_id;sensor_type;location;lat;lon;timestamp;pressure;altitude;pressure_sealevel;temperature;humidity
47082;BME280;33066;49.296;14.470;2023-12-22T00:00:19;94758.94;;;8.79;36.08
47082;BME280;33066;49.296;14.470;2023-12-22T00:02:44;94739.35;;;8.90;35.79
47082;BME280;33066;49.296;14.470;2023-12-22T00:05:09;94730.87;;;8.72;36.34
47082;BME280;33066;49.296;14.470;2023-12-22T00:07:34;94743.57;;;8.55;36.27
47082;BME280;33066;49.296;14.470;2023-12-22T00:10:00;94751.90;;;8.95;35.92
47082;BME280;33066;49.296;14.470;2023-12-22T00:12:25;94747.03;;;8.99;35.67
47082;BME280;33066;49.296;14.470;2023-12-22T00:14:51;94773.86;;;8.86;35.83
47082;BME280;33066;49.296;14.470;2023-12-22T00:17:16;94784.36;;;8.55;35.78
47082;BME280;33066;49.296;14.470;2023-12-22T00:19:42;94784.92;;;8.56;35.82
47082;BME280;33066;49.296;14.470;2023-12-22T00:22:07;94787.00;;;8.46;35.88
47082;BME280;33066;49.296;14.470;2023-12-22T00:24:32;94781.61;;;8.57;35.21
47082;BME280;33066;49.296;14.470;2023-12-22T00:26:58;94780.99;;;8.13;35.37
47082;BME280;33066;49.296;14.470;2023-12-22T00:29:23;94784.35;;;8.07;36.03
47082;BME280;33066;49.296;14.470;2023-12-22T00:31:49;94798.34;;;8.17;35.88
47082;BME280;33066;49.296;14.470;2023-12-22T00:34:14;94793.28;;;8.04;35.77
47082;BME280;33066;49.296;14.470;2023-12-22T00:36:40;94805.29;;;8.25;35.86
47082;BME280;33066;49.296;14.470;2023-12-22T00:39:05;94796.33;;;8.36;36.05
47082;BME280;33066;49.296;14.470;2023-12-22T00:41:31;94811.69;;;7.99;36.28
47082;BME280;33066;49.296;14.470;2023-12-22T00:43:56;94810.55;;;8.01;36.13
47082;BME280;33066;49.296;14.470;2023-12-22T00:46:21;94815.41;;;8.00;36.52
47082;BME280;33066;49.296;14.470;2023-12-22T00:48:47;94833.82;;;7.65;36.46
47082;BME280;33066;49.296;14.470;2023-12-22T00:51:12;94821.35;;;7.81;36.26
47082;BME280;33066;49.296;14.470;2023-12-22T00:53:38;94834.25;;;8.48;36.23
47082;BME280;33066;49.296;14.470;2023-12-22T00:56:03;94828.06;;;8.13;36.12
47082;BME280;33066;49.296;14.470;2023-12-22T00:58:29;94827.64;;;8.28;36.35
47082;BME280;33066;49.296;14.470;2023-12-22T01:00:54;94816.76;;;8.33;35.90
47082;BME280;33066;49.296;14.470;2023-12-22T01:03:19;94841.74;;;8.00;36.44
47082;BME280;33066;49.296;14.470;2023-12-22T01:05:46;94854.18;;;7.95;36.37
47082;BME280;33066;49.296;14.470;2023-12-22T01:08:10;94840.15;;;8.11;36.22
47082;BME280;33066;49.296;14.470;2023-12-22T01:10:36;94854.70;;;8.06;36.24
47082;BME280;33066;49.296;14.470;2023-12-22T01:13:01;94858.92;;;7.76;36.43
47082;BME280;33066;49.296;14.470;2023-12-22T01:15:26;94868.12;;;8.31;36.24
47082;BME280;33066;49.296;14.470;2023-12-22T01:17:51;94869.71;;;8.30;36.06
47082;BME280;33066;49.296;14.470;2023-12-22T01:20:17;94877.49;;;8.08;35.92
47082;BME280;33066;49.296;14.470;2023-12-22T01:22:42;94871.42;;;8.27;36.08
47082;BME280;33066;49.296;14.470;2023-12-22T01:25:08;94867.23;;;8.10;35.77
47082;BME280;33066;49.296;14.470;2023-12-22T01:27:33;94895.22;;;8.35;35.50
47082;BME280;33066;49.296;14.470;2023-12-22T01:29:58;94867.51;;;8.18;35.54
47082;BME280;33066;49.296;14.470;2023-12-22T01:32:24;94863.03;;;8.44;35.52
47082;BME280;33066;49.296;14.470;2023-12-22T01:34:49;94863.12;;;8.65;34.87
47082;BME280;33066;49.296;14.470;2023-12-22T01:37:14;94868.09;;;8.24;34.75
47082;BME280;33066;49.296;14.470;2023-12-22T01:39:40;94862.22;;;8.24;34.70
47082;BME280;33066;49.296;14.470;2023-12-22T01:42:06;94862.58;;;8.13;34.80
47082;BME280;33066;49.296;14.470;2023-12-22T01:44:31;94847.78;;;8.00;34.51
47082;BME280;33066;49.296;14.470;2023-12-22T01:46:56;94856.80;;;7.56;35.14
47082;BME280;33066;49.296;14.470;2023-12-22T01:49:22;94850.67;;;7.73;35.24
47082;BME280;33066;49.296;14.470;2023-12-22T01:51:48;94861.88;;;7.93;35.37
47082;BME280;33066;49.296;14.470;2023-12-22T01:54:14;94853.45;;;8.07;35.32
47082;BME280;33066;49.296;14.470;2023-12-22T01:56:38;94847.81;;;8.06;35.37
47082;BME280;33066;49.296;14.470;2023-12-22T01:59:03;94860.38;;;8.40;35.08
47082;BME280;33066;49.296;14.470;2023-12-22T02:01:29;94872.71;;;8.01;35.33
47082;BME280;33066;49.296;14.470;2023-12-22T02:03:56;94866.74;;;8.01;35.73
47082;BME280;33066;49.296;14.470;2023-12-22T02:06:21;94868.73;;;8.66;35.27
47082;BME280;33066;49.296;14.470;2023-12-22T02:08:47;94873.70;;;8.09;35.15
47082;BME280;33066;49.296;14.470;2023-12-22T02:11:11;94875.67;;;8.10;35.36
47082;BME280;33066;49.296;14.470;2023-12-22T02:13:36;94862.50;;;8.15;35.58
47082;BME280;33066;49.296;14.470;2023-12-22T02:16:06;94851.72;;;8.45;35.54
47082;BME280;33066;49.296;14.470;2023-12-22T02:18:33;94852.47;;;7.72;35.87
47082;BME280;33066;49.296;14.470;2023-12-22T02:20:53;94869.57;;;8.19;35.59
47082;BME280;33066;49.296;14.470;2023-12-22T02:23:18;94868.32;;;8.08;35.67
47082;BME280;33066;49.296;14.470;2023-12-22T02:25:43;94870.94;;;7.94;35.78
47082;BME280;33066;49.296;14.470;2023-12-22T02:28:10;94845.85;;;8.12;35.27
47082;BME280;33066;49.296;14.470;2023-12-22T02:30:39;94843.82;;;8.10;35.10
47082;BME280;33066;49.296;14.470;2023-12-22T02:33:03;94843.60;;;8.06;35.24
47082;BME280;33066;49.296;14.470;2023-12-22T02:35:26;94832.90;;;8.18;34.43
47082;BME280;33066;49.296;14.470;2023-12-22T02:37:51;94845.20;;;8.03;34.76
47082;BME280;33066;49.296;14.470;2023-12-22T02:40:16;94856.50;;;7.62;34.31
47082;BME280;33066;49.296;14.470;2023-12-22T02:42:42;94840.97;;;7.08;34.10
47082;BME280;33066;49.296;14.470;2023-12-22T02:45:13;94837.88;;;7.08;34.50
47082;BME280;33066;49.296;14.470;2023-12-22T02:47:32;94838.48;;;7.35;34.25
47082;BME280;33066;49.296;14.470;2023-12-22T02:49:58;94844.06;;;7.84;33.77
47082;BME280;33066;49.296;14.470;2023-12-22T02:52:23;94831.77;;;7.40;33.45
47082;BME280;33066;49.296;14.470;2023-12-22T02:54:49;94823.54;;;7.69;34.36
47082;BME280;33066;49.296;14.470;2023-12-22T02:57:14;94835.78;;;7.29;34.61
47082;BME280;33066;49.296;14.470;2023-12-22T02:59:39;94823.60;;;7.61;33.88
47082;BME280;33066;49.296;14.470;2023-12-22T03:02:05;94836.81;;;7.56;34.33
47082;BME280;33066;49.296;14.470;2023-12-22T03:04:30;94843.51;;;7.78;33.93
47082;BME280;33066;49.296;14.470;2023-12-22T03:06:56;94831.02;;;7.68;34.04
47082;BME280;33066;49.296;14.470;2023-12-22T03:09:21;94837.99;;;8.16;34.01
47082;BME280;33066;49.296;14.470;2023-12-22T03:11:47;94835.88;;;7.80;34.27
47082;BME280;33066;49.296;14.470;2023-12-22T03:14:12;94832.30;;;8.09;33.97
47082;BME280;33066;49.296;14.470;2023-12-22T03:16:37;94835.20;;;7.85;33.87
47082;BME280;33066;49.296;14.470;2023-12-22T03:19:03;94842.54;;;8.11;33.70
47082;BME280;33066;49.296;14.470;2023-12-22T03:21:28;94847.70;;;7.83;33.69
47082;BME280;33066;49.296;14.470;2023-12-22T03:23:54;94829.11;;;7.93;33.83
47082;BME280;33066;49.296;14.470;2023-12-22T03:26:19;94851.09;;;7.46;34.22
47082;BME280;33066;49.296;14.470;2023-12-22T03:28:44;94847.02;;;7.61;34.21
47082;BME280;33066;49.296;14.470;2023-12-22T03:31:10;94854.44;;;7.49;33.97
47082;BME280;33066;49.296;14.470;2023-12-22T03:33:35;94856.88;;;7.86;33.98
47082;BME280;33066;49.296;14.470;2023-12-22T03:36:01;94850.52;;;7.49;34.41
47082;BME280;33066;49.296;14.470;2023-12-22T03:38:26;94868.45;;;7.70;34.41
47082;BME280;33066;49.296;14.470;2023-12-22T03:40:52;94876.93;;;7.51;34.30
47082;BME280;33066;49.296;14.470;2023-12-22T03:43:17;94877.71;;;7.74;34.50
47082;BME280;33066;49.296;14.470;2023-12-22T03:45:43;94867.89;;;8.01;34.27
47082;BME280;33066;49.296;14.470;2023-12-22T03:48:08;94868.84;;;7.92;34.14
47082;BME280;33066;49.296;14.470;2023-12-22T03:50:33;94886.39;;;8.12;34.09
47082;BME280;33066;49.296;14.470;2023-12-22T03:52:59;94870.90;;;7.80;34.23
47082;BME280;33066;49.296;14.470;2023-12-22T03:55:24;94866.70;;;8.31;34.09
47082;BME280;33066;49.296;14.470;2023-12-22T03:57:50;94865.62;;;8.21;34.35
47082;BME280;33066;49.296;14.470;2023-12-22T04:00:16;94868.23;;;7.95;34.27
47082;BME280;33066;49.296;14.470;2023-12-22T04:02:41;94871.41;;;8.04;34.44
47082;BME280;33066;49.296;14.470;2023-12-22T04:05:06;94867.32;;;8.00;34.50
47082;BME280;33066;49.296;14.470;2023-12-22T04:07:32;94871.89;;;8.17;34.60
47082;BME280;33066;49.296;14.470;2023-12-22T04:09:57;94880.71;;;7.93;34.91
47082;BME280;33066;49.296;14.470;2023-12-22T04:13:00;94865.00;;;8.14;34.29
47082;BME280;33066;49.296;14.470;2023-12-22T04:15:25;94861.63;;;8.43;34.24
47082;BME280;33066;49.296;14.470;2023-12-22T04:17:50;94866.42;;;8.37;34.50
47082;BME280;33066;49.296;14.470;2023-12-22T04:20:16;94866.89;;;8.21;34.62
47082;BME280;33066;49.296;14.470;2023-12-22T04:22:41;94878.87;;;8.04;34.58
47082;BME280;33066;49.296;14.470;2023-12-22T04:25:07;94886.78;;;8.07;34.93
47082;BME280;33066;49.296;14.470;2023-12-22T04:27:32;94874.38;;;8.28;34.72
47082;BME280;33066;49.296;14.470;2023-12-22T04:29:59;94869.40;;;8.34;34.96
47082;BME280;33066;49.296;14.470;2023-12-22T04:32:23;94865.77;;;8.42;34.84
47082;BME280;33066;49.296;14.470;2023-12-22T04:34:49;94865.78;;;8.35;34.93
47082;BME280;33066;49.296;14.470;2023-12-22T04:37:14;94862.13;;;8.09;34.98
47082;BME280;33066;49.296;14.470;2023-12-22T04:39:40;94852.62;;;8.48;34.85
47082;BME280;33066;49.296;14.470;2023-12-22T04:42:05;94839.49;;;8.43;34.69
47082;BME280;33066;49.296;14.470;2023-12-22T04:44:30;94845.80;;;8.25;34.73
47082;BME280;33066;49.296;14.470;2023-12-22T04:46:56;94844.04;;;8.40;34.83
47082;BME280;33066;49.296;14.470;2023-12-22T04:49:21;94852.29;;;8.61;34.93
47082;BME280;33066;49.296;14.470;2023-12-22T04:51:46;94851.69;;;8.82;34.71
47082;BME280;33066;49.296;14.470;2023-12-22T04:54:12;94847.51;;;8.67;34.74
47082;BME280;33066;49.296;14.470;2023-12-22T04:56:37;94842.59;;;8.82;35.08
47082;BME280;33066;49.296;14.470;2023-12-22T04:59:03;94835.08;;;8.81;35.15
47082;BME280;33066;49.296;14.470;2023-12-22T05:01:28;94843.78;;;8.75;35.62
47082;BME280;33066;49.296;14.470;2023-12-22T05:03:54;94842.95;;;8.30;36.29
47082;BME280;33066;49.296;14.470;2023-12-22T05:06:19;94844.34;;;8.49;36.60
47082;BME280;33066;49.296;14.470;2023-12-22T05:08:44;94849.13;;;8.58;36.78
47082;BME280;33066;49.296;14.470;2023-12-22T05:11:10;94858.05;;;8.65;37.65
47082;BME280;33066;49.296;14.470;2023-12-22T05:13:35;94856.06;;;8.54;37.99
47082;BME280;33066;49.296;14.470;2023-12-22T05:16:01;94855.16;;;8.62;38.19
47082;BME280;33066;49.296;14.470;2023-12-22T05:18:26;94859.27;;;8.59;38.53
47082;BME280;33066;49.296;14.470;2023-12-22T05:20:51;94849.90;;;8.39;38.08
47082;BME280;33066;49.296;14.470;2023-12-22T05:23:17;94849.72;;;8.60;38.06
47082;BME280;33066;49.296;14.470;2023-12-22T05:25:42;94851.02;;;8.33;37.79
47082;BME280;33066;49.296;14.470;2023-12-22T05:28:08;94850.17;;;8.37;38.08
47082;BME280;33066;49.296;14.470;2023-12-22T05:30:33;94844.25;;;8.72;38.04
47082;BME280;33066;49.296;14.470;2023-12-22T05:32:59;94860.02;;;8.48;37.75
47082;BME280;33066;49.296;14.470;2023-12-22T05:35:24;94851.97;;;8.36;37.98
47082;BME280;33066;49.296;14.470;2023-12-22T05:37:50;94858.36;;;8.37;37.96
47082;BME280;33066;49.296;14.470;2023-12-22T05:40:15;94865.30;;;8.50;37.92
47082;BME280;33066;49.296;14.470;2023-12-22T05:42:40;94856.46;;;8.39;37.69
47082;BME280;33066;49.296;14.470;2023-12-22T05:45:07;94853.54;;;8.04;37.54
47082;BME280;33066;49.296;14.470;2023-12-22T05:47:31;94861.52;;;8.29;37.63
47082;BME280;33066;49.296;14.470;2023-12-22T05:49:57;94853.15;;;8.10;37.87
47082;BME280;33066;49.296;14.470;2023-12-22T05:52:22;94862.22;;;8.03;38.13
47082;BME280;33066;49.296;14.470;2023-12-22T05:54:47;94863.88;;;8.08;38.06
47082;BME280;33066;49.296;14.470;2023-12-22T05:57:13;94869.43;;;8.09;38.10
47082;BME280;33066;49.296;14.470;2023-12-22T05:59:38;94869.85;;;7.83;37.95
47082;BME280;33066;49.296;14.470;2023-12-22T06:02:04;94880.30;;;7.92;37.81
47082;BME280;33066;49.296;14.470;2023-12-22T06:04:29;94876.99;;;7.80;37.87
47082;BME280;33066;49.296;14.470;2023-12-22T06:06:54;94873.43;;;7.78;37.72
47082;BME280;33066;49.296;14.470;2023-12-22T06:09:20;94873.00;;;7.88;37.28
47082;BME280;33066;49.296;14.470;2023-12-22T06:11:45;94875.24;;;8.45;37.29
47082;BME280;33066;49.296;14.470;2023-12-22T06:14:11;94869.39;;;7.83;36.77
47082;BME280;33066;49.296;14.470;2023-12-22T06:16:36;94872.73;;;8.21;36.30
47082;BME280;33066;49.296;14.470;2023-12-22T06:19:03;94870.95;;;8.19;36.35
47082;BME280;33066;49.296;14.470;2023-12-22T06:21:28;94869.25;;;8.30;36.31
47082;BME280;33066;49.296;14.470;2023-12-22T06:23:53;94870.33;;;8.14;35.85
47082;BME280;33066;49.296;14.470;2023-12-22T06:26:18;94884.94;;;8.09;35.92
47082;BME280;33066;49.296;14.470;2023-12-22T06:28:44;94882.91;;;7.87;36.32
47082;BME280;33066;49.296;14.470;2023-12-22T06:31:18;94885.07;;;8.17;36.37
47082;BME280;33066;49.296;14.470;2023-12-22T06:33:35;94890.16;;;7.75;35.94
47082;BME280;33066;49.296;14.470;2023-12-22T06:36:00;94892.01;;;7.88;36.12
47082;BME280;33066;49.296;14.470;2023-12-22T06:38:26;94887.07;;;7.94;36.37
47082;BME280;33066;49.296;14.470;2023-12-22T06:40:51;94896.38;;;7.76;36.06
47082;BME280;33066;49.296;14.470;2023-12-22T06:43:17;94896.72;;;7.99;36.02
47082;BME280;33066;49.296;14.470;2023-12-22T06:45:42;94884.31;;;8.47;35.58
47082;BME280;33066;49.296;14.470;2023-12-22T06:48:07;94894.90;;;8.54;35.32
47082;BME280;33066;49.296;14.470;2023-12-22T06:50:33;94878.28;;;8.46;35.31
47082;BME280;33066;49.296;14.470;2023-12-22T06:52:58;94885.62;;;8.34;35.41
47082;BME280;33066;49.296;14.470;2023-12-22T06:55:24;94884.42;;;8.20;35.14
47082;BME280;33066;49.296;14.470;2023-12-22T06:57:49;94883.10;;;8.12;35.38
47082;BME280;33066;49.296;14.470;2023-12-22T07:00:15;94901.60;;;8.11;35.28
47082;BME280;33066;49.296;14.470;2023-12-22T07:02:40;94901.59;;;7.97;35.30
47082;BME280;33066;49.296;14.470;2023-12-22T07:07:31;94916.92;;;7.93;35.49
47082;BME280;33066;49.296;14.470;2023-12-22T07:09:56;94923.12;;;8.02;35.32
47082;BME280;33066;49.296;14.470;2023-12-22T07:12:22;94930.07;;;7.80;35.98
47082;BME280;33066;49.296;14.470;2023-12-22T07:14:47;94928.87;;;8.20;35.65
47082;BME280;33066;49.296;14.470;2023-12-22T07:17:13;94933.57;;;8.00;35.83
47082;BME280;33066;49.296;14.470;2023-12-22T07:19:38;94936.62;;;7.94;35.89
47082;BME280;33066;49.296;14.470;2023-12-22T07:22:04;94937.59;;;8.07;35.78
47082;BME280;33066;49.296;14.470;2023-12-22T07:24:29;94940.95;;;8.15;35.95
47082;BME280;33066;49.296;14.470;2023-12-22T07:26:55;94935.37;;;7.95;35.87
47082;BME280;33066;49.296;14.470;2023-12-22T07:29:20;94940.56;;;8.12;36.13
47082;BME280;33066;49.296;14.470;2023-12-22T07:31:46;94941.87;;;8.21;36.09
47082;BME280;33066;49.296;14.470;2023-12-22T07:34:11;94942.88;;;8.19;35.95
47082;BME280;33066;49.296;14.470;2023-12-22T07:36:36;94943.85;;;8.56;36.03
47082;BME280;33066;49.296;14.470;2023-12-22T07:39:02;94935.02;;;7.98;36.02
47082;BME280;33066;49.296;14.470;2023-12-22T07:41:27;94933.74;;;8.11;36.34
47082;BME280;33066;49.296;14.470;2023-12-22T07:43:52;94947.94;;;8.04;36.85
47082;BME280;33066;49.296;14.470;2023-12-22T07:46:18;94952.02;;;7.79;37.60
47082;BME280;33066;49.296;14.470;2023-12-22T07:48:43;94944.48;;;8.05;37.27
47082;BME280;33066;49.296;14.470;2023-12-22T07:51:09;94943.45;;;8.15;36.69
47082;BME280;33066;49.296;14.470;2023-12-22T07:53:34;94961.43;;;8.43;36.69
47082;BME280;33066;49.296;14.470;2023-12-22T07:56:00;94962.99;;;7.97;36.40
47082;BME280;33066;49.296;14.470;2023-12-22T07:58:25;94984.80;;;8.32;36.56
47082;BME280;33066;49.296;14.470;2023-12-22T08:00:51;94975.97;;;8.27;36.14
47082;BME280;33066;49.296;14.470;2023-12-22T08:03:16;94980.70;;;8.26;35.85
47082;BME280;33066;49.296;14.470;2023-12-22T08:05:42;94981.44;;;8.04;36.11
47082;BME280;33066;49.296;14.470;2023-12-22T08:08:07;94989.37;;;8.03;35.92
47082;BME280;33066;49.296;14.470;2023-12-22T08:10:32;94977.93;;;8.16;35.65
47082;BME280;33066;49.296;14.470;2023-12-22T08:12:58;94982.59;;;8.07;35.47
47082;BME280;33066;49.296;14.470;2023-12-22T08:15:24;94973.39;;;8.41;35.45
47082;BME280;33066;49.296;14.470;2023-12-22T08:17:49;94960.39;;;8.43;35.20
47082;BME280;33066;49.296;14.470;2023-12-22T08:20:17;94966.12;;;8.41;35.28
47082;BME280;33066;49.296;14.470;2023-12-22T08:22:39;94983.25;;;8.40;35.25
47082;BME280;33066;49.296;14.470;2023-12-22T08:25:06;94990.72;;;8.23;35.33
47082;BME280;33066;49.296;14.470;2023-12-22T08:27:30;94982.19;;;8.53;34.96
47082;BME280;33066;49.296;14.470;2023-12-22T08:29:56;94990.02;;;8.75;34.75
47082;BME280;33066;49.296;14.470;2023-12-22T08:32:21;94989.73;;;8.61;34.45
47082;BME280;33066;49.296;14.470;2023-12-22T08:34:47;94986.01;;;8.43;34.70
47082;BME280;33066;49.296;14.470;2023-12-22T08:37:12;94976.46;;;8.44;34.70
47082;BME280;33066;49.296;14.470;2023-12-22T08:39:38;94993.57;;;8.56;34.96
47082;BME280;33066;49.296;14.470;2023-12-22T08:42:04;94996.63;;;8.90;34.42
47082;BME280;33066;49.296;14.470;2023-12-22T08:44:28;95003.41;;;8.88;33.99
47082;BME280;33066;49.296;14.470;2023-12-22T08:46:54;94985.82;;;9.02;34.00
47082;BME280;33066;49.296;14.470;2023-12-22T08:49:19;94989.66;;;8.62;33.87
47082;BME280;33066;49.296;14.470;2023-12-22T08:51:45;94997.41;;;8.84;34.43
47082;BME280;33066;49.296;14.470;2023-12-22T08:54:10;95011.11;;;8.81;35.20
47082;BME280;33066;49.296;14.470;2023-12-22T08:56:36;95015.00;;;8.68;35.07
47082;BME280;33066;49.296;14.470;2023-12-22T08:59:01;95009.38;;;8.76;35.26
47082;BME280;33066;49.296;14.470;2023-12-22T09:01:27;95013.97;;;8.92;35.11
47082;BME280;33066;49.296;14.470;2023-12-22T09:03:52;95018.49;;;8.48;34.98
47082;BME280;33066;49.296;14.470;2023-12-22T09:06:18;95021.60;;;8.27;35.67
47082;BME280;33066;49.296;14.470;2023-12-22T09:08:43;95023.35;;;7.99;35.78
47082;BME280;33066;49.296;14.470;2023-12-22T09:11:08;95025.54;;;8.13;35.73
47082;BME280;33066;49.296;14.470;2023-12-22T09:13:34;95018.05;;;8.18;35.73
47082;BME280;33066;49.296;14.470;2023-12-22T09:15:59;95022.99;;;8.46;35.54
47082;BME280;33066;49.296;14.470;2023-12-22T09:18:25;95015.55;;;8.40;35.81
47082;BME280;33066;49.296;14.470;2023-12-22T09:20:50;95030.80;;;8.43;35.68
47082;BME280;33066;49.296;14.470;2023-12-22T09:23:15;95041.19;;;8.26;36.73
47082;BME280;33066;49.296;14.470;2023-12-22T09:25:41;95038.93;;;8.23;37.87
47082;BME280;33066;49.296;14.470;2023-12-22T09:28:06;95039.74;;;7.99;38.59
47082;BME280;33066;49.296;14.470;2023-12-22T09:30:32;95039.75;;;7.74;38.20
47082;BME280;33066;49.296;14.470;2023-12-22T09:32:57;95040.45;;;7.60;38.74
47082;BME280;33066;49.296;14.470;2023-12-22T09:35:23;95041.44;;;8.00;38.17
47082;BME280;33066;49.296;14.470;2023-12-22T09:37:48;95044.13;;;8.15;37.59
47082;BME280;33066;49.296;14.470;2023-12-22T09:40:14;95045.78;;;8.15;37.26
47082;BME280;33066;49.296;14.470;2023-12-22T09:42:41;95032.86;;;8.06;37.05
47082;BME280;33066;49.296;14.470;2023-12-22T09:45:06;95035.82;;;8.03;36.63
47082;BME280;33066;49.296;14.470;2023-12-22T09:47:30;95039.62;;;7.96;36.66
47082;BME280;33066;49.296;14.470;2023-12-22T09:49:56;95057.25;;;7.87;36.81
47082;BME280;33066;49.296;14.470;2023-12-22T09:52:21;95049.99;;;8.09;37.06
47082;BME280;33066;49.296;14.470;2023-12-22T09:54:47;95054.86;;;7.85;37.48
47082;BME280;33066;49.296;14.470;2023-12-22T09:57:12;95034.01;;;7.82;38.19
47082;BME280;33066;49.296;14.470;2023-12-22T09:59:38;95066.48;;;7.78;39.10
47082;BME280;33066;49.296;14.470;2023-12-22T10:02:04;95037.50;;;7.56;40.32
47082;BME280;33066;49.296;14.470;2023-12-22T10:04:28;95042.23;;;7.75;40.95
47082;BME280;33066;49.296;14.470;2023-12-22T10:06:55;95026.73;;;7.53;40.89
47082;BME280;33066;49.296;14.470;2023-12-22T10:09:19;95045.23;;;7.64;40.92
47082;BME280;33066;49.296;14.470;2023-12-22T10:11:44;95075.37;;;7.73;41.65
47082;BME280;33066;49.296;14.470;2023-12-22T10:14:10;95108.21;;;8.00;42.14
47082;BME280;33066;49.296;14.470;2023-12-22T10:16:36;95083.88;;;7.96;42.09
47082;BME280;33066;49.296;14.470;2023-12-22T10:19:00;95068.62;;;7.81;41.61
47082;BME280;33066;49.296;14.470;2023-12-22T10:21:26;95055.21;;;7.38;41.78
47082;BME280;33066;49.296;14.470;2023-12-22T10:23:51;95058.07;;;7.63;40.85
47082;BME280;33066;49.296;14.470;2023-12-22T10:26:17;95046.06;;;7.37;40.56
47082;BME280;33066;49.296;14.470;2023-12-22T10:28:42;95040.08;;;8.03;39.37
47082;BME280;33066;49.296;14.470;2023-12-22T10:31:09;95038.09;;;8.16;39.34
47082;BME280;33066;49.296;14.470;2023-12-22T10:33:33;95033.71;;;8.18;39.29
47082;BME280;33066;49.296;14.470;2023-12-22T10:35:59;95031.24;;;8.23;38.92
47082;BME280;33066;49.296;14.470;2023-12-22T10:38:24;95033.27;;;8.30;39.00
47082;BME280;33066;49.296;14.470;2023-12-22T10:40:50;95037.25;;;8.38;37.62
47082;BME280;33066;49.296;14.470;2023-12-22T10:43:15;95054.89;;;8.06;38.43
47082;BME280;33066;49.296;14.470;2023-12-22T10:45:40;95057.71;;;7.99;38.66
47082;BME280;33066;49.296;14.470;2023-12-22T10:48:07;95031.77;;;7.98;38.00
47082;BME280;33066;49.296;14.470;2023-12-22T10:50:32;95028.49;;;7.95;38.48
47082;BME280;33066;49.296;14.470;2023-12-22T10:52:57;95014.71;;;7.86;37.64
47082;BME280;33066;49.296;14.470;2023-12-22T10:55:22;95019.34;;;8.18;37.65
47082;BME280;33066;49.296;14.470;2023-12-22T10:57:47;95013.56;;;8.70;37.04
47082;BME280;33066;49.296;14.470;2023-12-22T11:00:15;95006.11;;;8.76;35.71
47082;BME280;33066;49.296;14.470;2023-12-22T11:02:42;95005.60;;;8.72;35.09
47082;BME280;33066;49.296;14.470;2023-12-22T11:05:04;95017.37;;;8.62;34.57
47082;BME280;33066;49.296;14.470;2023-12-22T11:07:29;95016.87;;;8.50;34.90
47082;BME280;33066;49.296;14.470;2023-12-22T11:09:56;94999.85;;;8.59;34.71
47082;BME280;33066;49.296;14.470;2023-12-22T11:12:21;95006.36;;;8.39;34.93
47082;BME280;33066;49.296;14.470;2023-12-22T11:14:46;95010.78;;;8.61;34.44
47082;BME280;33066;49.296;14.470;2023-12-22T11:17:11;95012.82;;;8.82;33.43
47082;BME280;33066;49.296;14.470;2023-12-22T11:19:37;95030.14;;;8.26;34.25
47082;BME280;33066;49.296;14.470;2023-12-22T11:22:02;95027.61;;;8.21;34.70
47082;BME280;33066;49.296;14.470;2023-12-22T11:24:29;95028.89;;;7.95;34.31
47082;BME280;33066;49.296;14.470;2023-12-22T11:26:54;95010.68;;;7.89;34.67
47082;BME280;33066;49.296;14.470;2023-12-22T11:29:18;95025.46;;;7.93;34.62
47082;BME280;33066;49.296;14.470;2023-12-22T11:31:44;95036.39;;;7.81;34.86
47082;BME280;33066;49.296;14.470;2023-12-22T11:34:09;95022.25;;;7.92;34.91
47082;BME280;33066;49.296;14.470;2023-12-22T11:36:35;95040.52;;;7.86;35.09
47082;BME280;33066;49.296;14.470;2023-12-22T11:38:59;95035.25;;;8.17;34.40
47082;BME280;33066;49.296;14.470;2023-12-22T11:41:28;95052.45;;;8.18;34.31
47082;BME280;33066;49.296;14.470;2023-12-22T11:43:51;95036.20;;;8.11;34.19
47082;BME280;33066;49.296;14.470;2023-12-22T11:46:18;95041.64;;;8.19;34.30
47082;BME280;33066;49.296;14.470;2023-12-22T11:48:47;95046.38;;;8.16;34.25
47082;BME280;33066;49.296;14.470;2023-12-22T11:51:12;95038.44;;;8.39;34.07
47082;BME280;33066;49.296;14.470;2023-12-22T11:53:32;95030.74;;;8.40;33.67
47082;BME280;33066;49.296;14.470;2023-12-22T11:56:00;95023.01;;;8.59;33.70
47082;BME280;33066;49.296;14.470;2023-12-22T11:58:35;95016.17;;;8.34;33.18
47082;BME280;33066;49.296;14.470;2023-12-22T12:00:53;95025.09;;;8.49;33.23
47082;BME280;33066;49.296;14.470;2023-12-22T12:03:14;95019.15;;;8.40;32.85
47082;BME280;33066;49.296;14.470;2023-12-22T12:05:39;95033.65;;;8.05;33.31
47082;BME280;33066;49.296;14.470;2023-12-22T12:08:07;95041.49;;;8.14;33.23
47082;BME280;33066;49.296;14.470;2023-12-22T12:13:04;95043.90;;;7.98;33.01
47082;BME280;33066;49.296;14.470;2023-12-22T12:15:23;95020.23;;;8.42;33.15
47082;BME280;33066;49.296;14.470;2023-12-22T12:17:48;95039.34;;;8.23;32.67
47082;BME280;33066;49.296;14.470;2023-12-22T12:20:12;95020.45;;;8.28;32.94
47082;BME280;33066;49.296;14.470;2023-12-22T12:22:38;95021.18;;;8.23;32.35
47082;BME280;33066;49.296;14.470;2023-12-22T12:25:06;95015.67;;;8.26;32.51
47082;BME280;33066;49.296;14.470;2023-12-22T12:27:28;95029.63;;;8.68;32.37
47082;BME280;33066;49.296;14.470;2023-12-22T12:29:53;95025.73;;;8.10;32.74
47082;BME280;33066;49.296;14.470;2023-12-22T12:32:23;95011.23;;;8.17;32.60
47082;BME280;33066;49.296;14.470;2023-12-22T12:34:44;95011.66;;;8.29;32.58
47082;BME280;33066;49.296;14.470;2023-12-22T12:37:10;95024.99;;;8.24;32.77
47082;BME280;33066;49.296;14.470;2023-12-22T12:39:36;95004.67;;;8.16;32.98
47082;BME280;33066;49.296;14.470;2023-12-22T12:42:02;95024.71;;;8.34;32.64
47082;BME280;33066;49.296;14.470;2023-12-22T12:44:27;95020.28;;;8.32;32.92
47082;BME280;33066;49.296;14.470;2023-12-22T12:46:51;95011.85;;;8.64;33.05
47082;BME280;33066;49.296;14.470;2023-12-22T12:49:19;95015.00;;;8.63;32.70
47082;BME280;33066;49.296;14.470;2023-12-22T12:51:44;95016.83;;;8.76;32.24
47082;BME280;33066;49.296;14.470;2023-12-22T12:54:08;95023.39;;;8.73;32.28